Ipaba, Brazil
Current Conditions -  °F | °C
As of 10:00 AM on Saturday 25 Oct 2014 (Local Time) from SBIP Reporting Station
Broken Clouds Broken Clouds  
Wind Chill: 77°   Ceiling: 4000
Heat Index: 79°   Visibility: 6mi
Dew Point: 61°   Wind: 6mph
Humidity: 57%   Direction: 40°NE
Pressure: 30"   Gusts: NA
Location:  19.41°S, 42.42°W
Report Text: SBIP 251200Z 04005KT 9999 FEW020 BKN040 25/16 Q1016
Loading
Personal Weather Stations






























Interactive Weather Map
Tropical Storm Tracking
New forecast layout! Learn more

10-Day Weather Forecast

Advertisements
Track Severe Weather on mobile